createdAt,value
2016-02-22T00:00:55.426Z,77.47
2016-02-22T00:01:55.429Z,77.95
2016-02-22T00:02:55.432Z,77.76
2016-02-22T00:03:55.434Z,77.66
2016-02-22T00:04:55.484Z,78.23
2016-02-22T00:05:55.427Z,78.52
2016-02-22T00:06:55.445Z,78.52
2016-02-22T00:07:55.448Z,77.56
2016-02-22T00:08:55.434Z,78.14
2016-02-22T00:09:55.438Z,77.66
2016-02-22T00:10:55.440Z,78.33
2016-02-22T00:11:55.443Z,78.33
2016-02-22T00:12:55.445Z,78.42
2016-02-22T00:13:55.448Z,78.23
2016-02-22T00:14:55.436Z,78.33
2016-02-22T00:15:55.443Z,78.23
2016-02-22T00:16:55.446Z,78.33
2016-02-22T00:17:55.449Z,77.95
2016-02-22T00:18:55.436Z,78.42
2016-02-22T00:19:55.438Z,78.23
2016-02-22T00:20:55.441Z,78.71
2016-02-22T00:21:55.443Z,78.29
2016-02-22T00:22:55.430Z,78.23
2016-02-22T00:23:55.433Z,78.52
2016-02-22T00:24:55.436Z,78.42
2016-02-22T00:25:55.438Z,78.61
2016-02-22T00:26:55.441Z,78.52
2016-02-22T00:27:55.429Z,78.71
2016-02-22T00:28:55.431Z,78.61
2016-02-22T00:29:55.449Z,78.14
2016-02-22T00:30:55.437Z,78.14
2016-02-22T00:32:08.192Z,78.33
2016-02-22T00:32:55.442Z,78.14
2016-02-22T00:33:55.429Z,78.52
2016-02-22T00:34:55.447Z,78.42
2016-02-22T00:35:55.434Z,78.14
2016-02-22T00:36:55.453Z,78.99
2016-02-22T00:38:08.192Z,79.05
2016-02-22T00:38:55.442Z,79.05
2016-02-22T00:39:55.430Z,79.33
2016-02-22T00:40:55.448Z,79.24
2016-02-22T00:41:55.450Z,79.62
2016-02-22T00:42:55.438Z,79.33
2016-02-22T00:43:55.441Z,79.52
2016-02-22T00:44:55.444Z,79.52
2016-02-22T00:45:55.430Z,79.43
2016-02-22T00:46:55.432Z,79.43
2016-02-22T00:47:55.452Z,79.24
2016-02-22T00:48:55.438Z,79.91
2016-02-22T00:49:55.441Z,79.33
2016-02-22T00:50:55.459Z,79.62
2016-02-22T00:51:55.447Z,79.52
2016-02-22T00:52:55.449Z,79.72
2016-02-22T00:53:55.451Z,79.52
2016-02-22T00:54:55.438Z,79.72
2016-02-22T00:55:55.441Z,80.1
2016-02-22T00:56:55.444Z,80.38
2016-02-22T00:57:55.462Z,80.19
2016-02-22T00:58:55.449Z,80.95
2016-02-22T00:59:55.436Z,80.47
2016-02-22T01:00:55.440Z,80.29
2016-02-22T01:01:55.457Z,80.19
2016-02-22T01:02:55.459Z,80.38
2016-02-22T01:03:55.448Z,81.05
2016-02-22T01:04:55.466Z,80.38
2016-02-22T01:06:08.189Z,80.1
2016-02-22T01:06:55.455Z,80.29
2016-02-22T01:07:55.443Z,80.38
2016-02-22T01:08:55.461Z,80.66
2016-02-22T01:09:55.448Z,80.38
2016-02-22T01:10:55.450Z,80.29
2016-02-22T01:11:55.453Z,80.1
2016-02-22T01:12:55.455Z,79.72
2016-02-22T01:13:55.458Z,79.81
2016-02-22T01:14:55.461Z,79.72
2016-02-22T01:15:55.480Z,79.72
2016-02-22T01:16:55.482Z,79.52
2016-02-22T01:17:55.469Z,79.24
2016-02-22T01:18:55.472Z,79.33
2016-02-22T01:19:55.458Z,79.19
2016-02-22T01:20:55.461Z,79.47
2016-02-22T01:21:55.464Z,79.47
2016-02-22T01:22:55.466Z,79.33
2016-02-22T01:23:55.454Z,79.38
2016-02-22T01:24:55.472Z,79.24
2016-02-22T01:25:55.474Z,79.24
2016-02-22T01:26:55.462Z,79.28
2016-02-22T01:28:08.218Z,79.38
2016-02-22T01:28:55.483Z,79.47
2016-02-22T01:29:55.470Z,79.57
2016-02-22T01:30:55.488Z,79.52
2016-02-22T01:31:55.476Z,79.52
2016-02-22T01:32:55.493Z,79.52
2016-02-22T01:33:55.465Z,79.57
2016-02-22T01:34:55.468Z,79.57
2016-02-22T01:35:55.486Z,79.47
2016-02-22T01:36:55.473Z,79.14
2016-02-22T01:37:55.476Z,79.47
2016-02-22T01:38:55.479Z,79.85
2016-02-22T01:39:55.481Z,79.28
2016-02-22T01:40:55.484Z,79.38
2016-02-22T01:41:55.487Z,79.09
2016-02-22T01:42:55.474Z,79.38
2016-02-22T01:43:55.492Z,79.19
2016-02-22T01:44:55.495Z,78.9
2016-02-22T01:45:55.482Z,78.9
2016-02-22T01:46:55.500Z,78.52
2016-02-22T01:47:55.488Z,78.8
2016-02-22T01:48:55.491Z,78.99
2016-02-22T01:49:55.493Z,78.42
2016-02-22T01:50:55.496Z,78.71
2016-02-22T01:51:55.499Z,78.23
2016-02-22T01:52:55.485Z,78.52
2016-02-22T01:53:55.504Z,78.71
2016-02-22T01:54:55.491Z,78.71
2016-02-22T01:56:08.246Z,78.71
2016-02-22T01:56:55.496Z,78.61
2016-02-22T01:57:55.499Z,78.42
2016-02-22T01:58:55.501Z,79.38
2016-02-22T01:59:55.504Z,79.09
2016-02-22T02:00:55.507Z,78.9
2016-02-22T02:01:55.509Z,79.38
2016-02-22T02:02:55.512Z,79.57
2016-02-22T02:03:55.515Z,79.19
2016-02-22T02:04:55.518Z,79.75
2016-02-22T02:05:55.520Z,79.47
2016-02-22T02:06:55.507Z,79.52
2016-02-22T02:07:55.510Z,79.52
2016-02-22T02:08:55.512Z,79.81
2016-02-22T02:09:55.515Z,79.28
2016-02-22T02:10:55.503Z,79.47
2016-02-22T02:11:55.536Z,79.38
2016-02-22T02:12:55.508Z,79.05
2016-02-22T02:13:55.511Z,79.57
2016-02-22T02:14:55.513Z,79.52
2016-02-22T02:15:55.516Z,79.52
2016-02-22T02:16:55.533Z,79.52
2016-02-22T02:17:55.521Z,79.72
2016-02-22T02:18:55.524Z,80.29
2016-02-22T02:19:55.526Z,80.29
2016-02-22T02:21:08.266Z,80.38
2016-02-22T02:21:55.532Z,80.66
2016-02-22T02:22:55.535Z,81.43
2016-02-22T02:23:55.537Z,81.52
2016-02-22T02:24:55.525Z,81.33
2016-02-22T02:26:01.808Z,82
2016-02-22T02:26:55.546Z,82
2016-02-22T02:27:55.533Z,82
2016-02-22T02:28:55.535Z,81.9
2016-02-22T02:29:55.538Z,82.24
2016-02-22T02:31:08.277Z,82.34
2016-02-22T02:31:55.527Z,82.71
2016-02-22T02:32:55.530Z,82.53
2016-02-22T02:33:55.549Z,82.81
2016-02-22T02:34:55.535Z,83.19
2016-02-22T02:35:55.538Z,83.86
2016-02-22T02:36:55.541Z,84.24
2016-02-22T02:37:55.559Z,84.14
2016-02-22T02:38:55.531Z,84.05
2016-02-22T02:39:55.534Z,84.24
2016-02-22T02:40:55.536Z,84.33
2016-02-22T02:41:55.539Z,84.43
2016-02-22T02:42:55.542Z,84.24
2016-02-22T02:43:55.544Z,84.24
2016-02-22T02:44:55.547Z,84.05
2016-02-22T02:45:55.533Z,84.43
2016-02-22T02:46:55.536Z,84.62
2016-02-22T02:47:55.555Z,84.91
2016-02-22T02:48:55.541Z,85.47
2016-02-22T02:50:08.297Z,85.1
2016-02-22T02:50:55.547Z,84.62
2016-02-22T02:51:55.549Z,84.72
2016-02-22T02:52:55.552Z,84.24
2016-02-22T02:53:55.555Z,84.72
2016-02-22T02:54:55.557Z,85.1
2016-02-22T02:55:55.545Z,84.86
2016-02-22T02:56:55.579Z,84.86
2016-02-22T02:57:55.551Z,85.34
2016-02-22T02:58:55.553Z,85.34
2016-02-22T02:59:55.556Z,85.15
2016-02-22T03:00:55.543Z,86.1
2016-02-22T03:01:55.545Z,85.72
2016-02-22T03:02:55.392Z,86.19
2016-02-22T03:03:55.551Z,86.38
2016-02-22T03:04:55.570Z,86.1
2016-02-22T03:05:55.557Z,86.38
2016-02-22T03:06:55.559Z,87.05
2016-02-22T03:07:55.562Z,86.95
2016-02-22T03:08:55.549Z,86.95
2016-02-22T03:09:55.551Z,87.62
2016-02-22T03:10:55.570Z,87.24
2016-02-22T03:11:55.542Z,87.43
2016-02-22T03:12:55.544Z,88.09
2016-02-22T03:13:55.562Z,88.43
2016-02-22T03:14:55.549Z,88.34
2016-02-22T03:15:55.553Z,88.19
2016-02-22T03:16:55.555Z,87.76
2016-02-22T03:17:55.541Z,88.53
2016-02-22T03:18:55.560Z,88.71
2016-02-22T03:19:55.564Z,88
2016-02-22T03:20:55.550Z,88.24
2016-02-22T03:21:55.583Z,87.86
2016-02-22T03:22:55.556Z,88.24
2016-02-22T03:23:55.558Z,88.09
2016-02-22T03:24:55.544Z,88.24
2016-02-22T03:25:55.547Z,88.62
2016-02-22T03:26:55.550Z,88.71
2016-02-22T03:27:55.553Z,88.53
2016-02-22T03:28:55.540Z,88.9
2016-02-22T03:29:55.558Z,88.28
2016-02-22T03:30:55.546Z,88.9
2016-02-22T03:31:55.549Z,88.62
2016-02-22T03:32:55.551Z,88.34
2016-02-22T03:33:55.569Z,88.24
2016-02-22T03:34:55.541Z,89.57
2016-02-22T03:35:55.543Z,89.19
2016-02-22T03:36:55.546Z,89.28
2016-02-22T03:37:55.548Z,89.04
2016-02-22T03:39:08.289Z,88.43
2016-02-22T03:39:55.539Z,88.38
2016-02-22T03:40:55.557Z,88.28
2016-02-22T03:41:55.544Z,88.28
2016-02-22T03:42:55.578Z,88.47
2016-02-22T03:43:55.550Z,88.53
2016-02-22T03:44:55.536Z,88.43
2016-02-22T03:45:55.539Z,88.62
2016-02-22T03:46:55.542Z,88.62
2016-02-22T03:47:55.545Z,88.34
2016-02-22T03:48:55.531Z,88.71
2016-02-22T03:49:55.550Z,88.81
2016-02-22T03:50:55.552Z,89
2016-02-22T03:51:55.539Z,89
2016-02-22T03:52:55.558Z,89.09
2016-02-22T03:53:55.545Z,89.47
2016-02-22T03:54:55.547Z,89.19
2016-02-22T03:55:55.535Z,89.09
2016-02-22T03:56:55.538Z,89.38
2016-02-22T03:57:55.541Z,89
2016-02-22T03:58:55.527Z,89.47
2016-02-22T03:59:55.546Z,89.67
2016-02-22T04:00:55.533Z,89.86
2016-02-22T04:01:55.535Z,89.57
2016-02-22T04:02:55.538Z,89.19
2016-02-22T04:03:55.541Z,89.19
2016-02-22T04:04:55.527Z,89.47
2016-02-22T04:05:55.530Z,89.67
2016-02-22T04:06:55.565Z,89.57
2016-02-22T04:07:55.535Z,89.57
2016-02-22T04:08:55.538Z,89.67
2016-02-22T04:09:55.541Z,89.67
2016-02-22T04:10:55.528Z,90.23
2016-02-22T04:11:55.546Z,90.23
2016-02-22T04:12:55.534Z,90.33
2016-02-22T04:14:08.273Z,90.99
2016-02-22T04:14:55.523Z,90.99
2016-02-22T04:15:55.542Z,90.95
2016-02-22T04:16:55.529Z,91.19
2016-02-22T04:17:55.531Z,90.99
2016-02-22T04:18:55.534Z,91.19
2016-02-22T04:19:55.521Z,91.09
2016-02-22T04:20:55.539Z,90.9
2016-02-22T04:21:55.527Z,90.99
2016-02-22T04:22:55.529Z,90.99
2016-02-22T04:23:55.532Z,90.42
2016-02-22T04:24:55.519Z,91.19
2016-02-22T04:25:55.521Z,90.9
2016-02-22T04:26:55.524Z,90.71
2016-02-22T04:27:55.527Z,90.71
2016-02-22T04:28:55.529Z,91.09
2016-02-22T04:29:55.532Z,90.8
2016-02-22T04:30:55.519Z,91.09
2016-02-22T04:31:55.522Z,90.05
2016-02-22T04:32:55.524Z,90.52
2016-02-22T04:33:55.527Z,90.33
2016-02-22T04:34:55.530Z,90.61
2016-02-22T04:35:55.517Z,90.8
2016-02-22T04:36:55.520Z,90.76
2016-02-22T04:37:55.523Z,90.76
2016-02-22T04:39:08.262Z,90.95
2016-02-22T04:39:55.528Z,90.85
2016-02-22T04:40:55.515Z,91.14
2016-02-22T04:41:55.533Z,91.24
2016-02-22T04:42:55.537Z,90.95
2016-02-22T04:43:55.523Z,91.61
2016-02-22T04:44:55.525Z,91.61
2016-02-22T04:45:55.513Z,91.89
2016-02-22T04:46:55.515Z,91.61
2016-02-22T04:47:55.518Z,91.42
2016-02-22T04:48:55.505Z,91.89
2016-02-22T04:49:55.509Z,92.18
2016-02-22T04:50:55.526Z,92.09
2016-02-22T04:51:55.513Z,91.89
2016-02-22T04:52:55.516Z,91.61
2016-02-22T04:53:55.518Z,92.09
2016-02-22T04:54:55.506Z,91.99
2016-02-22T04:55:55.508Z,91.99
2016-02-22T04:57:08.089Z,91.42
2016-02-22T04:57:55.514Z,91.24
2016-02-22T04:58:55.501Z,92.66
2016-02-22T04:59:55.504Z,92.28
2016-02-22T05:00:55.506Z,92.09
2016-02-22T05:01:55.510Z,91.89
2016-02-22T05:02:55.496Z,91.8
2016-02-22T05:03:55.499Z,92.18
2016-02-22T05:04:55.504Z,92.18
2016-02-22T05:05:55.506Z,92.18
2016-02-22T05:06:55.493Z,92.85
2016-02-22T05:07:55.512Z,91.99
2016-02-22T05:08:55.498Z,91.99
2016-02-22T05:09:55.501Z,91.99
2016-02-22T05:10:55.348Z,91.99
2016-02-22T05:11:55.506Z,92.28
2016-02-22T05:12:55.478Z,92.18
2016-02-22T05:13:55.512Z,92.75
2016-02-22T05:14:55.515Z,92.56
2016-02-22T05:15:55.502Z,92.66
2016-02-22T05:16:55.489Z,92.75
2016-02-22T05:17:55.492Z,92.66
2016-02-22T05:18:55.510Z,92.66
2016-02-22T05:20:01.762Z,92.75
2016-02-22T05:20:55.483Z,92.85
2016-02-22T05:21:55.487Z,92.85
2016-02-22T05:22:55.489Z,93.04
2016-02-22T05:23:55.491Z,93.6
2016-02-22T05:24:55.495Z,93.04
2016-02-22T05:25:55.482Z,93.04
2016-02-22T05:26:55.484Z,93.04
2016-02-22T05:27:55.487Z,93.51
2016-02-22T05:28:55.475Z,93.41
2016-02-22T05:29:55.477Z,92.75
2016-02-22T05:31:08.213Z,92.75
2016-02-22T05:31:55.466Z,93.32
2016-02-22T05:32:55.516Z,93.51
2016-02-22T05:33:55.471Z,93.23
2016-02-22T05:34:55.474Z,93.41
2016-02-22T05:35:55.477Z,93.04
2016-02-22T05:36:55.480Z,93.41
2016-02-22T05:37:55.467Z,93.7
2016-02-22T05:38:55.485Z,94.27
2016-02-22T05:39:55.472Z,93.7
2016-02-22T05:40:55.459Z,93.89
2016-02-22T05:41:55.462Z,93.8
2016-02-22T05:42:55.465Z,93.6
2016-02-22T05:43:55.452Z,94.18
2016-02-22T05:44:55.470Z,93.89
2016-02-22T05:45:55.458Z,93.99
2016-02-22T05:46:55.303Z,94.18
2016-02-22T05:47:55.463Z,94.08
2016-02-22T05:48:55.466Z,94.08
2016-02-22T05:49:55.469Z,94.18
2016-02-22T05:50:55.314Z,94.03
2016-02-22T05:51:55.458Z,94.46
2016-02-22T05:52:55.445Z,94.6
2016-02-22T05:53:55.463Z,94.93
2016-02-22T05:54:55.450Z,95.31
2016-02-22T05:55:55.438Z,95.51
2016-02-22T05:56:55.441Z,94.84
2016-02-22T05:58:08.193Z,94.84
2016-02-22T05:58:55.445Z,94.37
2016-02-22T05:59:55.449Z,94.27
2016-02-22T06:00:55.451Z,94.18
2016-02-22T06:01:55.454Z,94.65
2016-02-22T06:02:55.456Z,94.46
2016-02-22T06:03:55.288Z,94.27
2016-02-22T06:04:55.446Z,94.93
2016-02-22T06:05:55.432Z,94.56
2016-02-22T06:06:55.436Z,94.65
2016-02-22T06:07:55.438Z,94.65
2016-02-22T06:08:55.425Z,94.56
2016-02-22T06:09:55.424Z,95.03
2016-02-22T06:10:55.430Z,94.93
2016-02-22T06:11:55.404Z,94.65
2016-02-22T06:12:55.394Z,94.56
2016-02-22T06:13:55.385Z,94.84
2016-02-22T06:14:55.361Z,95.03
2016-02-22T06:15:55.359Z,94.18
2016-02-22T06:16:55.357Z,94.27
2016-02-22T06:17:55.341Z,94.37
2016-02-22T06:19:08.088Z,94.27
2016-02-22T06:20:01.602Z,94.37
2016-02-22T06:20:55.339Z,93.7
2016-02-22T06:21:55.340Z,94.08
2016-02-22T06:22:55.340Z,94.65
2016-02-22T06:23:55.342Z,94.46
2016-02-22T06:24:55.328Z,94.46
2016-02-22T06:25:55.329Z,94.27
2016-02-22T06:26:55.315Z,94.46
2016-02-22T06:27:55.317Z,94.37
2016-02-22T06:28:55.335Z,95.84
2016-02-22T06:29:55.306Z,95.79
2016-02-22T06:30:55.308Z,95.7
2016-02-22T06:31:55.311Z,96.08
2016-02-22T06:32:55.313Z,95.41
2016-02-22T06:33:55.315Z,95.89
2016-02-22T06:34:55.302Z,95.89
2016-02-22T06:35:55.320Z,95.79
2016-02-22T06:36:55.307Z,96.08
2016-02-22T06:37:55.310Z,96.45
2016-02-22T06:38:55.328Z,95.79
2016-02-22T06:39:55.315Z,95.89
2016-02-22T06:40:55.287Z,95.22
2016-02-22T06:41:55.305Z,94.93
2016-02-22T06:42:55.292Z,95.03
2016-02-22T06:43:55.294Z,94.65
2016-02-22T06:45:08.032Z,95.12
2016-02-22T06:46:08.019Z,94.46
2016-02-22T06:46:55.303Z,94.56
2016-02-22T06:47:55.306Z,93.7
2016-02-22T06:48:55.278Z,93.04
2016-02-22T06:49:55.280Z,93.32
2016-02-22T06:50:55.282Z,93.7
2016-02-22T06:51:55.300Z,93.23
2016-02-22T06:52:55.289Z,93.13
2016-02-22T06:53:55.291Z,93.13
2016-02-22T06:54:55.277Z,92.47
2016-02-22T06:55:55.280Z,92.18
2016-02-22T06:56:55.283Z,92.23
2016-02-22T06:57:55.285Z,91.89
2016-02-22T06:58:55.272Z,92.51
2016-02-22T06:59:55.275Z,92.13
2016-02-22T07:01:08.028Z,92.13
2016-02-22T07:01:55.280Z,92.13
2016-02-22T07:02:55.268Z,92.13
2016-02-22T07:03:55.271Z,91.94
2016-02-22T07:04:55.320Z,91.94
2016-02-22T07:05:55.276Z,91.66
2016-02-22T07:06:55.279Z,91.66
2016-02-22T07:07:55.282Z,91.66
2016-02-22T07:08:55.268Z,91.66
2016-02-22T07:09:55.271Z,91.85
2016-02-22T07:10:55.273Z,91.94
2016-02-22T07:11:55.260Z,91.28
2016-02-22T07:12:55.279Z,90.99
2016-02-22T07:13:55.265Z,90.99
2016-02-22T07:14:55.284Z,90.61
2016-02-22T07:15:55.271Z,90.8
2016-02-22T07:16:55.274Z,90.14
2016-02-22T07:17:55.292Z,90.33
2016-02-22T07:18:55.279Z,90.14
2016-02-22T07:19:55.282Z,90.14
2016-02-22T07:20:55.269Z,89.52
2016-02-22T07:21:55.272Z,90
2016-02-22T07:22:55.274Z,89.52
2016-02-22T07:23:55.278Z,89.8
2016-02-22T07:24:55.280Z,88.85
2016-02-22T07:26:08.001Z,88.95
2016-02-22T07:26:55.286Z,88.38
2016-02-22T07:27:55.272Z,88.57
2016-02-22T07:28:55.260Z,87.9
2016-02-22T07:29:55.277Z,87.43
2016-02-22T07:30:55.266Z,87.47
2016-02-22T07:31:55.283Z,85.9
2016-02-22T07:32:55.270Z,83.71
2016-02-22T07:33:55.274Z,80.04
2016-02-22T07:34:55.276Z,77.26
2016-02-22T07:35:55.263Z,73.49
2016-02-22T07:36:55.265Z,70.57
2016-02-22T07:37:55.284Z,68.51
2016-02-22T07:38:55.287Z,65.67
2016-02-22T07:39:55.304Z,63.89
2016-02-22T07:40:55.292Z,61.38
2016-02-22T07:41:55.295Z,58.25
2016-02-22T07:42:55.298Z,57.97
2016-02-22T07:43:55.300Z,57.87
2016-02-22T07:44:55.303Z,57.48
2016-02-22T07:45:55.306Z,56.46
2016-02-22T07:46:55.323Z,54.1
2016-02-22T07:47:55.311Z,52.4
2016-02-22T07:48:55.329Z,50.03
2016-02-22T07:49:55.347Z,48.9
2016-02-22T07:50:55.350Z,47.39
2016-02-22T07:51:55.353Z,47.58
2016-02-22T07:52:55.371Z,47.77
2016-02-22T07:53:55.373Z,48.25
2016-02-22T07:55:08.095Z,45.98
2016-02-22T07:56:01.864Z,44.92
2016-02-22T07:56:55.397Z,44.46
2016-02-22T07:57:55.400Z,42.76
2016-02-22T07:58:55.387Z,41.99
2016-02-22T08:00:08.139Z,41.31
2016-02-22T08:01:08.142Z,42.2
2016-02-22T08:01:55.411Z,43.43
2016-02-22T08:02:55.430Z,45.01
2016-02-22T08:03:55.432Z,48.07
2016-02-22T08:04:55.465Z,50.6
2016-02-22T08:05:55.469Z,52.59
2016-02-22T08:06:55.471Z,53.55
2016-02-22T08:07:55.473Z,55.31
2016-02-22T08:08:55.477Z,57.01
2016-02-22T08:10:08.230Z,58.25
2016-02-22T08:11:01.763Z,58.8
2016-02-22T08:11:55.500Z,58.7
2016-02-22T08:12:55.519Z,58.7
2016-02-22T08:13:55.506Z,58.98
2016-02-22T08:14:55.523Z,58.8
2016-02-22T08:15:55.526Z,58.73
2016-02-22T08:16:55.529Z,58.25
2016-02-22T08:17:55.548Z,57.68
2016-02-22T08:18:55.550Z,58.63
2016-02-22T08:20:08.287Z,59.75
2016-02-22T08:20:55.556Z,59.75
2016-02-22T08:21:55.574Z,59.66
2016-02-22T08:22:55.576Z,60.01
2016-02-22T08:23:55.595Z,60.77
2016-02-22T08:24:55.582Z,61.35
2016-02-22T08:25:55.584Z,61.6
2016-02-22T08:26:55.603Z,62.46
2016-02-22T08:27:55.589Z,62.46
2016-02-22T08:28:55.608Z,60.84
2016-02-22T08:29:55.611Z,60.39
2016-02-22T08:31:08.348Z,59.81
2016-02-22T08:31:55.632Z,59.44
2016-02-22T08:32:55.635Z,57.93
2016-02-22T08:33:55.638Z,55.47
2016-02-22T08:34:55.702Z,53.97
2016-02-22T08:35:55.705Z,53.04
2016-02-22T08:36:55.661Z,52.09
2016-02-22T08:37:58.679Z,50.87
2016-02-22T08:38:55.683Z,49.55
2016-02-22T08:39:55.685Z,47.46
2016-02-22T08:40:55.688Z,47.17
2016-02-22T08:41:55.691Z,46.6
2016-02-22T08:43:08.443Z,46.98
2016-02-22T08:43:55.712Z,47.75
2016-02-22T08:44:55.715Z,49.26
2016-02-22T08:45:55.717Z,50.96
2016-02-22T08:46:55.735Z,52.18
2016-02-22T08:47:55.738Z,53.59
2016-02-22T08:48:55.756Z,54.71
2016-02-22T08:49:55.759Z,55.64
2016-02-22T08:51:08.495Z,56.69
2016-02-22T08:51:55.765Z,57.33
2016-02-22T08:52:55.782Z,57.81
2016-02-22T08:53:55.769Z,58.67
2016-02-22T08:55:02.037Z,58.86
2016-02-22T08:55:55.774Z,58.86
2016-02-22T08:56:55.793Z,59.41
2016-02-22T08:57:55.795Z,59.69
2016-02-22T08:58:55.830Z,60.17
2016-02-22T08:59:55.816Z,59.98
2016-02-22T09:00:55.820Z,59.31
2016-02-22T09:01:55.666Z,58.93
2016-02-22T09:03:08.558Z,58.64
2016-02-22T09:03:55.843Z,59.12
2016-02-22T09:04:55.846Z,58.73
2016-02-22T09:06:08.583Z,58.26
2016-02-22T09:06:55.851Z,58.16
2016-02-22T09:07:55.838Z,58.26
2016-02-22T09:08:55.857Z,58.54
2016-02-22T09:09:55.875Z,57.78
2016-02-22T09:11:08.612Z,57.87
2016-02-22T09:11:55.865Z,57.59
2016-02-22T09:12:55.899Z,57.78
2016-02-22T09:13:55.870Z,57.78
2016-02-22T09:14:55.873Z,56.54
2016-02-22T09:16:08.625Z,57.62
2016-02-22T09:16:55.893Z,57.11
2016-02-22T09:17:55.896Z,56.73
2016-02-22T09:18:55.899Z,56.92
2016-02-22T09:19:55.902Z,56.73
2016-02-22T09:21:08.654Z,56.57
2016-02-22T09:21:55.907Z,56.76
2016-02-22T09:22:55.909Z,56.57
2016-02-22T09:23:55.944Z,56.38
2016-02-22T09:24:56.009Z,55.52
2016-02-22T09:25:56.011Z,56.38
2016-02-22T09:26:55.952Z,55.32
2016-02-22T09:27:55.955Z,55.42
2016-02-22T09:29:08.676Z,55.32
2016-02-22T09:29:55.944Z,55.32
2016-02-22T09:30:55.947Z,55.01
2016-02-22T09:31:55.966Z,55.13
2016-02-22T09:32:55.968Z,55.42
2016-02-22T09:33:55.971Z,54.37
2016-02-22T09:34:55.974Z,54.56
2016-02-22T09:35:55.991Z,53.99
2016-02-22T09:36:55.994Z,53.8
2016-02-22T09:38:08.716Z,53.61
2016-02-22T09:38:55.985Z,53.7
2016-02-22T09:39:56.002Z,53.7
2016-02-22T09:40:56.005Z,52.84
2016-02-22T09:41:56.008Z,52.84
2016-02-22T09:43:08.760Z,53.22
2016-02-22T09:43:56.044Z,52.84
2016-02-22T09:44:56.015Z,52.75
2016-02-22T09:45:56.019Z,52.36
2016-02-22T09:46:56.037Z,51.98
2016-02-22T09:48:08.758Z,52.08
2016-02-22T09:48:56.057Z,52.08
2016-02-22T09:49:56.045Z,51.7
2016-02-22T09:50:56.032Z,51.31
2016-02-22T09:51:56.065Z,51.21
2016-02-22T09:52:56.069Z,50.64
2016-02-22T09:53:56.055Z,50.84
2016-02-22T09:54:56.059Z,50.45
2016-02-22T09:55:56.061Z,50.35
2016-02-22T09:56:56.094Z,50.35
2016-02-22T09:58:08.817Z,50.55
2016-02-22T09:59:02.335Z,50.45
2016-02-22T09:59:56.103Z,50.07
2016-02-22T10:00:56.090Z,50.35
2016-02-22T10:01:56.108Z,50.35
2016-02-22T10:02:56.095Z,50.45
2016-02-22T10:03:56.098Z,50.84
2016-02-22T10:04:56.100Z,50.45
2016-02-22T10:05:56.119Z,50.35
2016-02-22T10:06:56.106Z,50.35
2016-02-22T10:08:08.874Z,50.35
2016-02-22T10:08:56.127Z,50.07
2016-02-22T10:09:56.129Z,50.16
2016-02-22T10:10:56.132Z,50.07
2016-02-22T10:11:56.135Z,49.69
2016-02-22T10:13:08.872Z,49.49
2016-02-22T10:13:56.140Z,50.35
2016-02-22T10:14:56.160Z,49.59
2016-02-22T10:15:56.146Z,49.3
2016-02-22T10:16:56.164Z,49.49
2016-02-22T10:17:56.168Z,49.49
2016-02-22T10:18:56.170Z,48.83
2016-02-22T10:20:08.907Z,48.73
2016-02-22T10:20:56.190Z,49.3
2016-02-22T10:21:56.209Z,49.11
2016-02-22T10:22:56.196Z,49.11
2016-02-22T10:23:56.199Z,49.11
2016-02-22T10:24:56.186Z,48.73
2016-02-22T10:25:56.189Z,47.99
2016-02-22T10:26:56.207Z,47.71
2016-02-22T10:27:56.209Z,47.87
2016-02-22T10:29:08.947Z,48.09
2016-02-22T10:29:56.230Z,48.09
2016-02-22T10:31:21.892Z,47.8
2016-02-22T10:32:06.423Z,47.99
2016-02-22T10:33:00.176Z,47.99
2016-02-22T10:34:00.163Z,47.8
2016-02-22T10:35:00.197Z,47.99
2016-02-22T10:36:00.200Z,47.8
2016-02-22T10:37:00.186Z,47.89
2016-02-22T10:38:00.189Z,48.09
2016-02-22T10:39:00.208Z,47.8
2016-02-22T10:40:00.211Z,48.38
2016-02-22T10:41:12.932Z,48.28
2016-02-22T10:42:00.216Z,47.99
2016-02-22T10:43:00.202Z,47.89
2016-02-22T10:44:00.205Z,47.61
2016-02-22T10:45:00.208Z,47.71
2016-02-22T10:46:00.227Z,47.63
2016-02-22T10:47:00.229Z,46.67
2016-02-22T10:48:12.982Z,46.58
2016-02-22T10:49:12.969Z,47.63
2016-02-22T10:50:00.237Z,47.34
2016-02-22T10:51:00.256Z,47.06
2016-02-22T10:52:00.259Z,47.25
2016-02-22T10:53:00.262Z,46.87
2016-02-22T10:54:00.264Z,46.1
2016-02-22T10:55:13.095Z,45.17
2016-02-22T10:56:13.004Z,45.26
2016-02-22T10:57:00.287Z,45.43
2016-02-22T10:58:00.290Z,45.81
2016-02-22T10:59:00.293Z,45.81
2016-02-22T11:00:00.296Z,45.94
2016-02-22T11:01:00.298Z,45.81
2016-02-22T11:02:00.301Z,45.36
2016-02-22T11:03:00.319Z,45.07
2016-02-22T11:04:00.338Z,45.07
2016-02-22T11:05:00.325Z,44.38
2016-02-22T11:06:00.344Z,45.15
2016-02-22T11:07:00.330Z,46.1
2016-02-22T11:08:13.083Z,45.81
2016-02-22T11:09:00.335Z,46.1
2016-02-22T11:10:00.354Z,45.91
2016-02-22T11:11:00.372Z,45.53
2016-02-22T11:12:00.359Z,45.91
2016-02-22T11:13:00.377Z,45.91
2016-02-22T11:14:13.115Z,45.15
2016-02-22T11:15:00.399Z,45.05
2016-02-22T11:16:00.229Z,45.34
2016-02-22T11:17:00.388Z,45.05
2016-02-22T11:18:00.390Z,43.83
2016-02-22T11:19:00.410Z,43.63
2016-02-22T11:20:00.412Z,43.44
2016-02-22T11:21:13.134Z,43.83
2016-02-22T11:22:00.417Z,44.31
2016-02-22T11:23:00.420Z,43.83
2016-02-22T11:24:00.423Z,43.8
2016-02-22T11:25:00.441Z,43.23
2016-02-22T11:26:00.428Z,43.23
2016-02-22T11:27:00.446Z,42.76
2016-02-22T11:28:00.449Z,42.94
2016-02-22T11:29:00.451Z,43.23
2016-02-22T11:30:00.454Z,43.23
2016-02-22T11:31:00.456Z,43.33
2016-02-22T11:32:13.226Z,43.23
2016-02-22T11:33:00.478Z,42.85
2016-02-22T11:34:00.465Z,42.76
2016-02-22T11:35:00.483Z,42.66
2016-02-22T11:36:00.486Z,42.94
2016-02-22T11:37:00.505Z,42.56
2016-02-22T11:38:00.491Z,43.33
2016-02-22T11:39:00.494Z,42.94
2016-02-22T11:40:00.513Z,42.27
2016-02-22T11:41:06.781Z,42.2
2016-02-22T11:42:00.518Z,41.89
2016-02-22T11:43:00.521Z,41.03
2016-02-22T11:44:00.523Z,41.8
2016-02-22T11:45:00.527Z,40.65
2016-02-22T11:46:00.529Z,40.94
2016-02-22T11:47:00.532Z,41.22
2016-02-22T11:48:01.956Z,41.41
2016-02-22T11:49:00.552Z,41.22
2016-02-22T11:50:00.555Z,41.32
2016-02-22T11:51:00.558Z,41.41
2016-02-22T11:52:00.560Z,41.8
2016-02-22T11:53:00.562Z,41.8
2016-02-22T11:54:06.832Z,42.18
2016-02-22T11:55:00.584Z,41.89
2016-02-22T11:56:00.603Z,41.8
2016-02-22T11:57:00.589Z,41.99
2016-02-22T11:58:00.593Z,41.61
2016-02-22T11:59:00.595Z,41.89
2016-02-22T12:00:13.332Z,41.99
2016-02-22T12:01:00.631Z,42.18
2016-02-22T12:02:00.619Z,42.56
2016-02-22T12:03:00.622Z,41.89
2016-02-22T12:04:00.624Z,42.18
2016-02-22T12:05:00.642Z,42.47
2016-02-22T12:06:00.629Z,42.76
2016-02-22T12:07:00.664Z,42.56
2016-02-22T12:08:13.385Z,42.77
2016-02-22T12:09:00.653Z,41.91
2016-02-22T12:10:00.655Z,41.34
2016-02-22T12:11:00.659Z,41.24
2016-02-22T12:12:13.396Z,41.82
2016-02-22T12:13:00.680Z,41.05
2016-02-22T12:14:00.666Z,40.67
2016-02-22T12:15:00.715Z,40.59
2016-02-22T12:16:00.688Z,40.5
2016-02-22T12:17:00.706Z,40.21
2016-02-22T12:18:06.958Z,40.12
2016-02-22T12:19:00.710Z,40.78
2016-02-22T12:20:00.714Z,40.59
2016-02-22T12:21:00.716Z,40.38
2016-02-22T12:22:00.735Z,40.67
2016-02-22T12:23:00.721Z,40.5
2016-02-22T12:24:13.475Z,40.41
2016-02-22T12:25:00.727Z,40.59
2016-02-22T12:26:00.746Z,40.77
2016-02-22T12:27:00.748Z,40.58
2016-02-22T12:28:13.484Z,40.78
2016-02-22T12:29:07.098Z,40.77
2016-02-22T12:30:00.773Z,41.07
2016-02-22T12:31:00.775Z,40.98
2016-02-22T12:32:00.761Z,41.94
2016-02-22T12:33:00.796Z,41.36
2016-02-22T12:34:00.783Z,41.36
2016-02-22T12:35:00.801Z,40.88
2016-02-22T12:36:00.819Z,41.17
2016-02-22T12:37:13.526Z,40.98
2016-02-22T12:38:00.808Z,40.98
2016-02-22T12:39:00.812Z,41.46
2016-02-22T12:40:00.814Z,41.27
2016-02-22T12:41:00.816Z,41.36
2016-02-22T12:42:00.852Z,41.17
2016-02-22T12:43:00.839Z,40.98
2016-02-22T12:44:13.575Z,40.21
2016-02-22T12:45:00.843Z,39.64
2016-02-22T12:46:00.863Z,39.35
2016-02-22T12:47:00.880Z,38.59
2016-02-22T12:48:00.868Z,38.6
2016-02-22T12:49:07.151Z,38.6
2016-02-22T12:50:00.888Z,37.53
2016-02-22T12:51:00.891Z,37.43
2016-02-22T12:52:00.894Z,37.63
2016-02-22T12:53:00.896Z,38.68
2016-02-22T12:54:00.904Z,38.68
2016-02-22T12:55:13.688Z,39.25
2016-02-22T12:56:13.659Z,39.16